Date,TemperatureHighF,TemperatureAvgF,TemperatureLowF,DewpointHighF,DewpointAvgF,DewpointLowF,HumidityHigh,HumidityAvg,HumidityLow,PressureMaxIn,PressureMinIn,WindSpeedMaxMPH,WindSpeedAvgMPH,GustSpeedMaxMPH,PrecipitationSumIn
2013-12-1,31.0,29.1,24.0,30.0,24.4,20.0,95,83,73,30.25,30.16,5,2,0,0.00
2013-12-2,31.0,23.6,10.0,22.0,18.5,7.0,91,81,68,30.16,30.03,4,1,0,0.00
2013-12-3,23.0,21.5,6.0,20.0,17.0,3.0,90,83,77,30.18,30.13,8,4,0,0.00
2013-12-4,35.0,26.2,22.0,33.0,23.3,18.0,94,88,82,30.16,29.59,15,6,0,0.00
2013-12-5,44.0,32.6,18.0,43.0,26.9,9.0,97,80,60,30.12,29.48,15,11,0,0.00
2013-12-6,24.0,18.1,14.0,16.0,11.5,7.0,80,75,69,30.41,30.12,12,8,0,0.00
2013-12-7,21.0,15.3,11.0,13.0,7.7,-99.9,84,74,64,30.62,30.41,12,7,0,0.00
2013-12-8,20.0,12.2,2.0,17.0,6.7,-1.0,88,78,63,30.66,30.23,6,2,0,0.00
2013-12-9,27.0,20.9,10.0,24.0,16.8,2.0,91,84,71,30.23,29.78,16,5,0,0.00
2013-12-10,14.0,6.5,-3.0,7.0,1.3,-7.0,88,79,72,30.09,29.91,11,3,0,0.00
2013-12-11,11.0,8.1,1.0,7.0,3.2,-6.0,87,80,72,30.40,30.08,11,4,0,0.00
2013-12-12,16.0,9.5,-3.0,9.0,2.9,-7.0,85,75,56,30.39,30.06,12,6,0,0.00
2013-12-13,13.0,-0.2,-13.0,10.0,-6.0,-18.0,88,76,62,30.64,30.06,10,2,0,0.00
2013-12-14,8.0,1.5,-14.0,2.0,-7.5,-99.9,82,68,58,30.64,30.12,6,3,0,0.00
2013-12-15,13.0,6.9,-4.0,5.0,0.8,-9.0,82,76,70,30.14,29.86,6,2,0,0.00
2013-12-16,11.0,-0.4,-18.0,6.0,-7.1,-23.0,84,73,57,30.34,30.11,7,2,0,0.00
2013-12-17,19.0,15.9,10.0,17.0,13.4,6.0,92,90,85,30.12,29.91,7,2,0,0.00
2013-12-18,23.0,19.7,16.0,21.0,16.9,14.0,92,88,73,30.09,29.87,8,3,0,0.00
2013-12-19,29.0,22.2,14.0,26.0,18.7,10.0,93,86,73,30.22,29.83,13,2,0,0.00
2013-12-20,20.0,15.1,10.0,14.0,10.7,6.0,87,82,77,30.20,30.02,4,2,0,0.00
2013-12-21,23.0,19.4,17.0,17.0,13.8,-99.9,88,81,74,30.18,29.99,6,2,0,0.00
2013-12-22,20.0,13.6,6.0,13.0,8.7,2.0,88,81,71,30.24,30.03,11,7,0,0.00
2013-12-23,7.0,3.6,-5.0,2.0,-1.3,-9.0,83,80,73,30.51,30.23,7,2,0,0.00
2013-12-24,8.0,-3.0,-16.0,0.0,-9.1,-21.0,83,75,65,30.68,30.63,2,0,0,0.00
2013-12-25,21.0,14.2,-14.0,19.0,11.5,-19.0,92,89,79,30.62,30.14,15,7,0,0.00
2013-12-26,22.0,10.1,-2.0,18.0,6.0,-6.0,87,83,74,30.32,30.13,10,2,0,0.00
2013-12-27,30.0,16.1,4.0,27.0,12.4,1.0,90,85,69,30.35,29.94,9,2,0,0.00
2013-12-28,34.0,31.3,22.0,31.0,27.8,-99.9,94,90,88,30.06,29.91,12,3,0,0.00
2013-12-29,21.0,7.2,-11.0,18.0,2.8,-17.0,88,82,72,30.21,29.88,12,6,0,0.00
2013-12-30,7.0,-3.7,-23.0,1.0,-8.5,-28.0,85,79,74,30.40,30.21,8,2,0,0.00
2013-12-31,14.0,3.5,-4.0,8.0,-0.4,-8.0,87,83,72,30.39,30.11,9,2,0,0.00